Time;durP1;ratioP1;P1;durP2;ratioP2;P2;SDS_P1;SDS_P2;PMS_P1;PMS_P2;Temp;Humidity;BMP_temperature;BMP_pressure;BME280_temperature;BME280_humidity;BME280_pressure;Samples;Min_cycle;Max_cycle;Signal;HPM_P1;HPM_P2
2023/06/05 00:01:59;;;;;;;7.75;3.63;;;;;;;;;;5002178;28;20493;-66
2023/06/05 00:04:27;;;;;;;7.13;3.53;;;;;;;;;;4996098;28;20041;-66
2023/06/05 00:06:54;;;;;;;6.32;3.50;;;;;;;;;;5018523;28;20516;-66
2023/06/05 00:09:21;;;;;;;6.22;3.53;;;;;;;;;;5005099;28;20069;-65
2023/06/05 00:11:48;;;;;;;6.32;3.63;;;;;;;;;;5003929;28;20057;-64
2023/06/05 00:14:15;;;;;;;6.88;3.63;;;;;;;;;;4994114;28;20049;-66
2023/06/05 00:16:41;;;;;;;6.75;3.50;;;;;;;;;;5006910;28;20068;-66
2023/06/05 00:19:08;;;;;;;6.65;3.60;;;;;;;;;;5008693;28;20069;-66
2023/06/05 00:21:35;;;;;;;6.40;3.47;;;;;;;;;;5005860;28;23067;-66
2023/06/05 00:24:01;;;;;;;8.73;3.45;;;;;;;;;;5006277;28;20038;-66
2023/06/05 00:26:28;;;;;;;8.43;4.03;;;;;;;;;;5004150;28;21428;-66
2023/06/05 00:28:55;;;;;;;6.80;3.58;;;;;;;;;;5008465;28;20102;-67
2023/06/05 00:31:22;;;;;;;9.45;4.00;;;;;;;;;;4995551;28;20042;-68
2023/06/05 00:33:51;;;;;;;7.85;3.75;;;;;;;;;;4983716;28;20164;-68
2023/06/05 00:36:22;;;;;;;8.65;3.83;;;;;;;;;;4985310;28;20045;-65
2023/06/05 00:38:50;;;;;;;7.93;3.72;;;;;;;;;;5003135;28;20038;-65
2023/06/05 00:41:16;;;;;;;7.45;4.00;;;;;;;;;;5004622;28;20049;-65
2023/06/05 00:43:43;;;;;;;9.45;3.83;;;;;;;;;;4985542;28;20110;-66
2023/06/05 00:46:11;;;;;;;8.55;4.50;;;;;;;;;;4991373;28;20132;-65
2023/06/05 00:48:38;;;;;;;8.00;3.50;;;;;;;;;;5003493;28;20542;-65
2023/06/05 00:51:05;;;;;;;9.07;3.95;;;;;;;;;;5003361;28;20501;-64
2023/06/05 00:53:34;;;;;;;7.97;3.65;;;;;;;;;;4999529;28;20415;-63
2023/06/05 00:56:01;;;;;;;6.68;3.70;;;;;;;;;;4986576;28;20175;-66
2023/06/05 00:58:29;;;;;;;7.70;3.80;;;;;;;;;;5017602;28;20049;-65
2023/06/05 01:00:57;;;;;;;7.30;3.28;;;;;;;;;;5001619;28;20033;-63
2023/06/05 01:03:24;;;;;;;6.97;3.88;;;;;;;;;;5004398;28;20101;-60
2023/06/05 01:05:51;;;;;;;9.57;3.90;;;;;;;;;;5005573;28;20044;-64
2023/06/05 01:08:25;;;;;;;22.48;5.18;;;;;;;;;;5005882;28;20057;-65
2023/06/05 01:10:53;;;;;;;7.80;3.40;;;;;;;;;;5005719;28;20037;-65
2023/06/05 01:13:24;;;;;;;7.95;4.10;;;;;;;;;;5005100;28;20041;-64
2023/06/05 01:15:53;;;;;;;6.78;3.70;;;;;;;;;;5005020;28;20060;-64
2023/06/05 01:18:20;;;;;;;10.73;4.03;;;;;;;;;;5016364;28;22583;-65
2023/06/05 01:20:46;;;;;;;7.45;3.90;;;;;;;;;;4996152;28;20511;-63
2023/06/05 01:23:13;;;;;;;7.95;3.50;;;;;;;;;;5005060;28;20092;-63
2023/06/05 01:25:42;;;;;;;8.80;3.95;;;;;;;;;;5007458;28;20038;-62
2023/06/05 01:28:22;;;;;;;8.27;3.58;;;;;;;;;;5004755;28;20558;-63
2023/06/05 01:30:52;;;;;;;7.30;3.70;;;;;;;;;;5003329;28;20439;-63
2023/06/05 01:33:51;;;;;;;8.63;3.95;;;;;;;;;;5003093;28;20082;-63
2023/06/05 01:36:18;;;;;;;8.95;3.40;;;;;;;;;;5005619;28;20421;-63
2023/06/05 01:38:46;;;;;;;10.07;4.00;;;;;;;;;;5000945;28;20132;-63
2023/06/05 01:41:13;;;;;;;8.77;3.30;;;;;;;;;;5000497;28;20048;-66
2023/06/05 01:43:40;;;;;;;8.80;3.67;;;;;;;;;;5002112;28;20041;-65
2023/06/05 01:46:07;;;;;;;11.27;3.30;;;;;;;;;;5004966;28;20038;-62
2023/06/05 01:48:34;;;;;;;6.68;3.55;;;;;;;;;;4993406;28;20045;-63
2023/06/05 01:51:01;;;;;;;11.80;3.80;;;;;;;;;;4983817;28;20068;-63
2023/06/05 01:53:29;;;;;;;7.53;3.55;;;;;;;;;;4980756;28;20034;-66
2023/06/05 01:55:57;;;;;;;9.70;3.80;;;;;;;;;;4979141;28;20055;-65
2023/06/05 01:58:24;;;;;;;6.72;3.40;;;;;;;;;;4981235;28;20038;-67
2023/06/05 02:00:52;;;;;;;10.27;3.75;;;;;;;;;;4983379;28;20214;-66
2023/06/05 02:03:19;;;;;;;6.78;3.47;;;;;;;;;;4983223;28;20054;-66
2023/06/05 02:05:46;;;;;;;6.95;3.42;;;;;;;;;;4992567;28;20042;-65
2023/06/05 02:08:19;;;;;;;6.80;3.20;;;;;;;;;;4981484;28;20037;-64
2023/06/05 02:10:48;;;;;;;7.18;3.55;;;;;;;;;;5002447;28;20224;-63
2023/06/05 02:13:15;;;;;;;8.70;3.97;;;;;;;;;;5002781;28;20033;-63
2023/06/05 02:15:44;;;;;;;9.35;3.90;;;;;;;;;;4998206;28;20057;-64
2023/06/05 02:18:12;;;;;;;10.27;3.38;;;;;;;;;;5002807;28;20495;-66
2023/06/05 02:20:41;;;;;;;7.15;3.92;;;;;;;;;;5001810;28;20069;-64
2023/06/05 02:23:08;;;;;;;7.95;3.78;;;;;;;;;;5003521;28;20068;-65
2023/06/05 02:25:35;;;;;;;6.15;3.63;;;;;;;;;;4999465;28;20107;-64
2023/06/05 02:28:01;;;;;;;7.50;3.15;;;;;;;;;;5003493;28;20043;-63
2023/06/05 02:30:28;;;;;;;8.82;4.30;;;;;;;;;;4988179;28;20125;-65
2023/06/05 02:33:00;;;;;;;6.75;3.55;;;;;;;;;;4979273;28;20052;-63
2023/06/05 02:35:27;;;;;;;9.10;3.72;;;;;;;;;;4987758;28;20073;-66
2023/06/05 02:37:54;;;;;;;7.68;3.42;;;;;;;;;;5000759;28;20076;-65
2023/06/05 02:40:20;;;;;;;7.68;3.72;;;;;;;;;;5001633;28;20091;-63
2023/06/05 02:42:47;;;;;;;10.88;4.28;;;;;;;;;;4989050;28;20049;-63
2023/06/05 02:45:14;;;;;;;7.13;3.47;;;;;;;;;;4991914;28;20414;-63
2023/06/05 02:47:41;;;;;;;8.73;4.05;;;;;;;;;;5002035;28;20312;-64
2023/06/05 02:50:08;;;;;;;10.77;4.43;;;;;;;;;;4997136;28;20041;-66
2023/06/05 02:52:35;;;;;;;7.35;3.53;;;;;;;;;;4982172;28;20044;-62
2023/06/05 02:55:03;;;;;;;7.60;3.70;;;;;;;;;;4988605;28;20136;-67
2023/06/05 02:57:30;;;;;;;7.70;3.85;;;;;;;;;;5000317;28;20056;-64
2023/06/05 02:59:56;;;;;;;6.93;3.55;;;;;;;;;;4996310;28;20038;-65
2023/06/05 03:02:26;;;;;;;7.20;3.90;;;;;;;;;;4985171;28;20080;-60
2023/06/05 03:04:55;;;;;;;9.18;4.20;;;;;;;;;;4980251;28;20048;-66
2023/06/05 03:07:22;;;;;;;7.95;3.70;;;;;;;;;;4970756;28;20080;-67
2023/06/05 03:09:49;;;;;;;8.05;3.78;;;;;;;;;;5010509;28;20041;-65
2023/06/05 03:12:16;;;;;;;7.32;3.72;;;;;;;;;;4979102;28;20050;-61
2023/06/05 03:14:42;;;;;;;7.32;3.85;;;;;;;;;;4978335;28;20488;-62
2023/06/05 03:17:09;;;;;;;7.20;3.78;;;;;;;;;;4977551;28;20065;-60
2023/06/05 03:19:35;;;;;;;7.20;4.28;;;;;;;;;;4977427;28;20085;-61
2023/06/05 03:22:03;;;;;;;7.38;3.38;;;;;;;;;;4995628;28;20458;-60
2023/06/05 03:24:30;;;;;;;9.25;3.67;;;;;;;;;;5000016;28;20072;-60
2023/06/05 03:26:57;;;;;;;9.82;4.13;;;;;;;;;;5007064;28;20046;-60
2023/06/05 03:29:23;;;;;;;7.97;3.67;;;;;;;;;;4993485;28;20047;-60
2023/06/05 03:31:50;;;;;;;8.38;3.78;;;;;;;;;;4995203;28;20739;-61
2023/06/05 03:34:17;;;;;;;9.50;3.75;;;;;;;;;;5006465;28;20666;-65
2023/06/05 03:36:43;;;;;;;10.13;4.05;;;;;;;;;;5000309;28;20237;-65
2023/06/05 03:39:11;;;;;;;11.68;4.30;;;;;;;;;;4997601;28;20046;-62
2023/06/05 03:41:38;;;;;;;8.88;4.20;;;;;;;;;;5003524;28;20127;-64
2023/06/05 03:44:04;;;;;;;7.88;4.07;;;;;;;;;;5001230;28;20901;-63
2023/06/05 03:46:31;;;;;;;7.75;4.10;;;;;;;;;;5003574;28;20045;-67
2023/06/05 03:49:05;;;;;;;7.97;4.38;;;;;;;;;;5007785;28;20050;-65
2023/06/05 03:51:32;;;;;;;6.88;3.65;;;;;;;;;;5004184;28;20048;-64
2023/06/05 03:53:58;;;;;;;8.20;4.07;;;;;;;;;;5005854;28;20103;-64
2023/06/05 03:56:33;;;;;;;12.98;4.03;;;;;;;;;;5003406;28;20793;-64
2023/06/05 03:59:08;;;;;;;8.05;4.25;;;;;;;;;;5003724;28;20120;-64
2023/06/05 04:01:38;;;;;;;8.65;4.03;;;;;;;;;;5003320;28;20892;-64
2023/06/05 04:04:05;;;;;;;14.13;4.20;;;;;;;;;;5005687;28;20502;-65
2023/06/05 04:06:33;;;;;;;41.47;5.75;;;;;;;;;;4996910;28;20053;-65
2023/06/05 04:09:00;;;;;;;11.80;4.53;;;;;;;;;;5005174;28;20541;-65
2023/06/05 04:11:26;;;;;;;9.93;4.15;;;;;;;;;;5003219;28;20046;-64
2023/06/05 04:13:56;;;;;;;10.90;4.30;;;;;;;;;;5006361;28;20399;-63
2023/06/05 04:16:22;;;;;;;10.02;4.15;;;;;;;;;;5003705;28;20545;-64
2023/06/05 04:18:49;;;;;;;11.63;4.40;;;;;;;;;;5004828;28;20053;-65
2023/06/05 04:21:16;;;;;;;10.40;4.38;;;;;;;;;;5005355;28;20033;-64
2023/06/05 04:23:42;;;;;;;9.07;4.47;;;;;;;;;;5003372;28;20833;-63
2023/06/05 04:26:09;;;;;;;7.82;3.88;;;;;;;;;;5004679;28;20045;-64
2023/06/05 04:28:35;;;;;;;7.20;4.05;;;;;;;;;;5002904;28;20045;-63
2023/06/05 04:31:02;;;;;;;9.30;4.50;;;;;;;;;;4997346;28;20041;-65
2023/06/05 04:33:29;;;;;;;10.55;4.07;;;;;;;;;;5001192;28;20048;-64
2023/06/05 04:35:55;;;;;;;8.43;4.20;;;;;;;;;;5005184;28;20033;-63
2023/06/05 04:38:22;;;;;;;10.23;3.90;;;;;;;;;;4997607;28;20038;-63
2023/06/05 04:40:50;;;;;;;7.82;3.88;;;;;;;;;;4999281;28;20065;-63
2023/06/05 04:43:17;;;;;;;8.50;4.15;;;;;;;;;;5014573;28;20695;-65
2023/06/05 04:45:43;;;;;;;8.75;4.03;;;;;;;;;;5002570;28;20103;-63
2023/06/05 04:48:10;;;;;;;9.32;4.10;;;;;;;;;;5001774;28;20037;-64
2023/06/05 04:50:37;;;;;;;8.95;4.60;;;;;;;;;;5003599;28;20361;-64
2023/06/05 04:53:03;;;;;;;8.10;4.38;;;;;;;;;;4999558;28;20049;-63
2023/06/05 04:55:30;;;;;;;7.28;4.07;;;;;;;;;;5004062;28;21834;-65
2023/06/05 04:58:00;;;;;;;8.27;4.07;;;;;;;;;;5004569;28;20415;-64
2023/06/05 05:00:27;;;;;;;10.18;4.38;;;;;;;;;;5004418;28;20038;-64
2023/06/05 05:02:54;;;;;;;9.35;4.40;;;;;;;;;;4997665;28;20041;-65
2023/06/05 05:05:21;;;;;;;9.95;4.63;;;;;;;;;;5001835;28;20843;-66
2023/06/05 05:07:47;;;;;;;11.07;4.70;;;;;;;;;;4985156;28;20030;-64
2023/06/05 05:10:14;;;;;;;10.05;4.85;;;;;;;;;;4982892;28;20073;-65
2023/06/05 05:12:41;;;;;;;9.70;4.30;;;;;;;;;;4982731;28;20093;-60
2023/06/05 05:15:08;;;;;;;8.85;4.90;;;;;;;;;;4982578;28;20049;-61
2023/06/05 05:17:34;;;;;;;10.65;4.70;;;;;;;;;;4979904;28;21799;-65
2023/06/05 05:20:03;;;;;;;8.73;4.03;;;;;;;;;;4981878;28;20232;-64
2023/06/05 05:22:29;;;;;;;8.13;4.38;;;;;;;;;;4981501;28;20046;-64
2023/06/05 05:24:56;;;;;;;11.77;4.38;;;;;;;;;;4992235;28;20042;-63
2023/06/05 05:27:24;;;;;;;11.02;4.85;;;;;;;;;;4991014;28;20049;-62
2023/06/05 05:29:51;;;;;;;9.55;4.75;;;;;;;;;;4995248;28;20115;-63
2023/06/05 05:32:17;;;;;;;13.10;5.00;;;;;;;;;;5003481;28;20069;-61
2023/06/05 05:34:44;;;;;;;11.45;4.82;;;;;;;;;;4985308;28;20038;-63
2023/06/05 05:37:11;;;;;;;8.70;4.63;;;;;;;;;;4994205;28;20546;-61
2023/06/05 05:39:37;;;;;;;9.82;4.95;;;;;;;;;;4995714;28;20060;-63
2023/06/05 05:42:04;;;;;;;7.63;4.47;;;;;;;;;;5006181;28;20037;-64
2023/06/05 05:44:30;;;;;;;12.55;5.05;;;;;;;;;;5003813;28;20052;-64
2023/06/05 05:46:57;;;;;;;15.73;4.85;;;;;;;;;;5004426;28;20071;-63
2023/06/05 05:49:24;;;;;;;9.68;4.70;;;;;;;;;;5004746;28;20053;-63
2023/06/05 05:51:51;;;;;;;7.00;4.10;;;;;;;;;;5006499;28;20041;-64
2023/06/05 05:54:18;;;;;;;9.55;4.20;;;;;;;;;;5004118;28;20120;-63
2023/06/05 05:56:44;;;;;;;8.85;4.32;;;;;;;;;;5003576;28;20053;-64
2023/06/05 05:59:11;;;;;;;11.88;4.40;;;;;;;;;;5005267;28;20032;-64
2023/06/05 06:01:38;;;;;;;8.50;4.63;;;;;;;;;;5004273;28;20088;-63
2023/06/05 06:04:05;;;;;;;10.70;5.05;;;;;;;;;;5004881;28;20128;-64
2023/06/05 06:06:33;;;;;;;10.55;4.82;;;;;;;;;;5002790;28;20116;-63
2023/06/05 06:09:01;;;;;;;7.78;4.00;;;;;;;;;;5004014;28;20046;-64
2023/06/05 06:11:28;;;;;;;11.45;4.78;;;;;;;;;;5001411;28;20048;-64
2023/06/05 06:13:55;;;;;;;10.75;5.32;;;;;;;;;;5002629;28;20045;-64
2023/06/05 06:16:21;;;;;;;10.15;4.32;;;;;;;;;;5000768;28;20574;-64
2023/06/05 06:18:48;;;;;;;10.95;4.38;;;;;;;;;;5002364;28;20052;-62
2023/06/05 06:21:15;;;;;;;9.30;4.13;;;;;;;;;;5003111;28;20495;-63
2023/06/05 06:23:44;;;;;;;10.15;4.63;;;;;;;;;;5001750;28;20099;-64
2023/06/05 06:26:11;;;;;;;13.38;4.38;;;;;;;;;;5002610;28;20049;-63
2023/06/05 06:28:38;;;;;;;10.95;4.78;;;;;;;;;;5001495;28;20537;-63
2023/06/05 06:31:04;;;;;;;6.72;3.47;;;;;;;;;;4994812;28;20834;-63
2023/06/05 06:33:31;;;;;;;8.90;4.07;;;;;;;;;;4999413;28;20055;-62
2023/06/05 06:35:58;;;;;;;9.30;4.07;;;;;;;;;;4994428;28;20047;-63
2023/06/05 06:38:30;;;;;;;8.55;4.07;;;;;;;;;;4992200;28;20401;-63
2023/06/05 06:41:00;;;;;;;8.70;4.32;;;;;;;;;;5001977;28;20050;-62
2023/06/05 06:43:26;;;;;;;9.38;4.15;;;;;;;;;;5013835;28;20038;-62
2023/06/05 06:45:53;;;;;;;7.30;3.72;;;;;;;;;;4999256;28;20034;-64
2023/06/05 06:48:20;;;;;;;8.35;4.05;;;;;;;;;;4999515;28;20068;-63
2023/06/05 06:50:47;;;;;;;11.55;4.32;;;;;;;;;;5011536;28;20044;-62
2023/06/05 06:53:14;;;;;;;11.25;3.78;;;;;;;;;;5002626;28;20037;-63
2023/06/05 06:55:40;;;;;;;7.90;3.97;;;;;;;;;;5012798;28;20510;-63
2023/06/05 06:58:07;;;;;;;9.60;4.15;;;;;;;;;;5012467;28;20053;-64
2023/06/05 07:00:34;;;;;;;8.80;4.45;;;;;;;;;;5009750;28;20413;-63
2023/06/05 07:03:01;;;;;;;11.95;4.30;;;;;;;;;;5012440;28;20179;-64
2023/06/05 07:05:28;;;;;;;10.65;4.95;;;;;;;;;;5010118;28;21276;-64
2023/06/05 07:07:55;;;;;;;14.00;4.38;;;;;;;;;;5010561;28;20053;-64
2023/06/05 07:10:21;;;;;;;10.50;4.28;;;;;;;;;;5011912;28;20038;-64
2023/06/05 07:12:48;;;;;;;10.60;4.30;;;;;;;;;;5010053;28;20402;-63
2023/06/05 07:15:15;;;;;;;10.48;4.50;;;;;;;;;;5009498;28;20052;-62
2023/06/05 07:17:41;;;;;;;8.68;3.83;;;;;;;;;;5010497;28;20056;-63
2023/06/05 07:20:09;;;;;;;11.68;4.15;;;;;;;;;;5009966;28;20049;-62
2023/06/05 07:22:35;;;;;;;7.72;4.03;;;;;;;;;;5009951;28;20051;-61
2023/06/05 07:31:08;;;;;;;12.73;4.18;;;;;;;;;;4990789;28;20095;-63
2023/06/05 07:33:35;;;;;;;8.95;4.50;;;;;;;;;;5001687;28;20030;-63
2023/06/05 07:36:02;;;;;;;8.35;4.68;;;;;;;;;;5001991;28;20103;-64
2023/06/05 07:38:29;;;;;;;9.63;3.80;;;;;;;;;;5008112;28;20450;-62
2023/06/05 07:41:01;;;;;;;8.20;3.53;;;;;;;;;;5010781;28;20061;-63
2023/06/05 07:43:28;;;;;;;7.65;3.60;;;;;;;;;;5000623;28;20052;-62
2023/06/05 07:45:55;;;;;;;6.22;3.30;;;;;;;;;;4987394;28;20495;-62
2023/06/05 07:48:21;;;;;;;7.85;3.65;;;;;;;;;;4987198;28;20401;-64
2023/06/05 07:50:48;;;;;;;6.68;3.45;;;;;;;;;;5004490;28;20045;-62
2023/06/05 07:53:15;;;;;;;10.80;3.97;;;;;;;;;;4990605;28;20120;-63
2023/06/05 07:55:41;;;;;;;7.32;3.50;;;;;;;;;;4989552;28;20042;-64
2023/06/05 07:58:08;;;;;;;8.25;3.65;;;;;;;;;;4987836;28;20176;-63
2023/06/05 08:00:35;;;;;;;9.27;3.63;;;;;;;;;;4998143;28;20127;-63
2023/06/05 08:03:02;;;;;;;7.25;3.58;;;;;;;;;;5006339;28;20058;-65
2023/06/05 08:05:29;;;;;;;6.80;3.60;;;;;;;;;;5008829;28;20029;-62
2023/06/05 08:07:55;;;;;;;9.73;3.88;;;;;;;;;;5002289;28;20037;-65
2023/06/05 08:10:22;;;;;;;8.63;3.78;;;;;;;;;;5003981;28;20056;-64
2023/06/05 08:12:49;;;;;;;13.88;4.25;;;;;;;;;;5004540;28;20046;-63
2023/06/05 08:15:15;;;;;;;8.40;3.72;;;;;;;;;;5006430;28;20034;-64
2023/06/05 08:17:42;;;;;;;10.32;3.90;;;;;;;;;;5009346;28;20319;-62
2023/06/05 08:20:10;;;;;;;9.85;4.03;;;;;;;;;;5009752;28;20045;-64
2023/06/05 08:22:40;;;;;;;7.15;3.92;;;;;;;;;;5024615;28;20576;-62
2023/06/05 08:25:07;;;;;;;11.38;3.67;;;;;;;;;;5012503;28;20520;-63
2023/06/05 08:27:34;;;;;;;8.55;4.30;;;;;;;;;;5012301;28;20065;-63
2023/06/05 08:30:01;;;;;;;9.25;3.30;;;;;;;;;;5012756;28;20037;-63
2023/06/05 08:32:27;;;;;;;8.07;3.90;;;;;;;;;;5006231;28;20094;-63
2023/06/05 08:34:54;;;;;;;8.07;3.80;;;;;;;;;;5013049;28;20095;-62
2023/06/05 08:37:20;;;;;;;6.90;3.95;;;;;;;;;;5012679;28;20053;-63
2023/06/05 08:39:48;;;;;;;11.80;3.58;;;;;;;;;;5022634;28;20053;-63
2023/06/05 08:42:18;;;;;;;9.15;3.63;;;;;;;;;;4990606;28;20041;-62
2023/06/05 08:44:47;;;;;;;9.40;3.70;;;;;;;;;;4991851;28;20073;-64
2023/06/05 08:47:15;;;;;;;8.75;3.78;;;;;;;;;;5006978;28;20037;-62
2023/06/05 08:49:42;;;;;;;9.20;3.88;;;;;;;;;;4991128;28;20053;-63
2023/06/05 08:52:10;;;;;;;8.45;3.47;;;;;;;;;;4990836;28;20034;-63
2023/06/05 08:54:38;;;;;;;9.07;3.72;;;;;;;;;;4987452;28;20117;-64
2023/06/05 08:57:05;;;;;;;10.65;4.15;;;;;;;;;;4989755;28;20050;-63
2023/06/05 08:59:32;;;;;;;9.85;3.85;;;;;;;;;;4989332;28;20168;-62
2023/06/05 09:01:58;;;;;;;15.00;4.30;;;;;;;;;;4990522;28;20041;-62
2023/06/05 09:04:29;;;;;;;13.50;3.75;;;;;;;;;;4987065;28;20046;-64
2023/06/05 09:07:03;;;;;;;9.18;4.10;;;;;;;;;;4989651;28;20129;-63
2023/06/05 09:09:30;;;;;;;8.75;4.07;;;;;;;;;;4988393;28;20098;-64
2023/06/05 09:12:03;;;;;;;7.60;3.20;;;;;;;;;;4990356;28;20048;-64
2023/06/05 09:14:33;;;;;;;6.63;3.67;;;;;;;;;;4988123;28;20046;-64
2023/06/05 09:17:03;;;;;;;8.93;3.58;;;;;;;;;;4989170;28;20042;-62
2023/06/05 09:19:40;;;;;;;8.45;3.83;;;;;;;;;;4994679;28;20125;-63
2023/06/05 09:22:08;;;;;;;9.85;4.20;;;;;;;;;;4990260;28;20042;-63
2023/06/05 09:24:35;;;;;;;7.13;3.72;;;;;;;;;;4988895;28;20043;-62
2023/06/05 09:27:09;;;;;;;9.98;4.38;;;;;;;;;;4989710;28;20720;-62
2023/06/05 09:29:37;;;;;;;11.50;4.85;;;;;;;;;;5001997;28;20042;-61
2023/06/05 09:32:08;;;;;;;11.02;5.20;;;;;;;;;;5012514;28;20048;-62
2023/06/05 09:34:36;;;;;;;15.32;5.47;;;;;;;;;;5011593;28;20039;-63
2023/06/05 09:37:06;;;;;;;14.10;5.47;;;;;;;;;;5010902;28;20062;-63
2023/06/05 09:39:34;;;;;;;25.55;6.95;;;;;;;;;;5009509;28;20040;-66
2023/06/05 09:42:01;;;;;;;22.48;6.28;;;;;;;;;;5018603;28;20830;-62
2023/06/05 09:44:28;;;;;;;15.13;6.05;;;;;;;;;;5002194;28;20133;-64
2023/06/05 09:47:00;;;;;;;10.48;5.05;;;;;;;;;;5002966;28;20045;-63
2023/06/05 09:49:30;;;;;;;17.42;5.82;;;;;;;;;;5009907;28;20564;-64
2023/06/05 09:51:58;;;;;;;14.88;6.75;;;;;;;;;;5012468;28;20042;-64
2023/06/05 09:54:26;;;;;;;17.35;6.45;;;;;;;;;;5007722;28;20034;-65
2023/06/05 09:56:56;;;;;;;19.30;6.25;;;;;;;;;;4990845;28;20050;-64
2023/06/05 09:59:24;;;;;;;14.23;5.53;;;;;;;;;;5003505;28;20042;-65
2023/06/05 10:01:52;;;;;;;18.75;5.10;;;;;;;;;;4991523;28;20052;-65
2023/06/05 10:04:23;;;;;;;14.60;5.10;;;;;;;;;;4991564;28;20138;-65
2023/06/05 10:06:51;;;;;;;10.23;4.82;;;;;;;;;;5027780;28;20029;-65
2023/06/05 10:09:19;;;;;;;13.70;5.15;;;;;;;;;;5006640;28;20045;-71
2023/06/05 10:11:49;;;;;;;11.98;5.18;;;;;;;;;;5016831;28;20049;-64
2023/06/05 10:14:16;;;;;;;13.00;4.20;;;;;;;;;;5018298;28;20989;-64
2023/06/05 10:16:44;;;;;;;9.80;4.10;;;;;;;;;;4988360;28;20057;-65
2023/06/05 10:19:12;;;;;;;10.80;5.32;;;;;;;;;;4988951;28;20034;-64
2023/06/05 10:21:39;;;;;;;11.43;4.97;;;;;;;;;;4999382;28;20121;-64
2023/06/05 10:24:13;;;;;;;13.07;4.50;;;;;;;;;;5010429;28;20044;-64
2023/06/05 10:26:47;;;;;;;12.18;4.82;;;;;;;;;;4990272;28;20056;-62
2023/06/05 10:29:13;;;;;;;10.48;4.25;;;;;;;;;;5006238;28;20154;-63
2023/06/05 10:31:46;;;;;;;11.80;4.80;;;;;;;;;;5008096;28;20063;-62
2023/06/05 10:34:19;;;;;;;15.52;4.43;;;;;;;;;;5010832;28;20132;-63
2023/06/05 10:37:08;;;;;;;12.73;4.15;;;;;;;;;;5002379;28;20042;-63
2023/06/05 10:39:35;;;;;;;7.47;3.70;;;;;;;;;;5010645;28;20049;-62
2023/06/05 10:42:02;;;;;;;10.35;5.18;;;;;;;;;;5005483;28;20053;-63
2023/06/05 10:44:44;;;;;;;8.43;4.07;;;;;;;;;;5008113;28;20029;-64
2023/06/05 10:47:36;;;;;;;14.13;3.75;;;;;;;;;;5009890;28;20068;-63
2023/06/05 10:50:19;;;;;;;16.25;3.92;;;;;;;;;;5008455;28;20041;-64
2023/06/05 14:38:35;;;;;;;10.00;2.83;;;;;;;;;;5045553;27;20436;-64
2023/06/05 14:41:01;;;;;;;6.10;2.38;;;;;;;;;;5054885;28;20569;-64
2023/06/05 14:43:28;;;;;;;6.75;2.35;;;;;;;;;;5039816;28;20029;-65
2023/06/05 14:45:54;;;;;;;6.00;2.08;;;;;;;;;;5041185;28;20182;-65
2023/06/05 14:48:21;;;;;;;7.93;2.45;;;;;;;;;;5039035;28;20052;-68
2023/06/05 14:50:49;;;;;;;5.22;2.08;;;;;;;;;;5054621;28;20116;-65
2023/06/05 14:53:16;;;;;;;5.68;2.30;;;;;;;;;;5055770;28;20063;-64
2023/06/05 14:55:42;;;;;;;5.63;2.38;;;;;;;;;;5038407;28;21344;-65
2023/06/05 14:58:10;;;;;;;6.97;2.33;;;;;;;;;;5041946;28;20049;-65
2023/06/05 15:00:37;;;;;;;11.57;2.90;;;;;;;;;;5043121;28;20029;-65
2023/06/05 15:03:04;;;;;;;9.13;2.22;;;;;;;;;;5057142;28;20030;-65
2023/06/05 15:05:31;;;;;;;9.27;2.42;;;;;;;;;;5025606;28;20162;-63
2023/06/05 15:07:59;;;;;;;9.27;2.85;;;;;;;;;;5031153;28;20064;-64
2023/06/05 15:10:26;;;;;;;8.77;2.33;;;;;;;;;;5030196;28;20037;-65
2023/06/05 15:12:57;;;;;;;5.15;2.25;;;;;;;;;;5039204;28;20077;-65
2023/06/05 15:15:26;;;;;;;5.07;2.35;;;;;;;;;;5031314;28;21175;-64
2023/06/05 15:17:53;;;;;;;8.50;2.88;;;;;;;;;;5040638;28;20134;-64
2023/06/05 15:20:20;;;;;;;7.78;2.10;;;;;;;;;;5038206;28;20309;-63
2023/06/05 15:22:47;;;;;;;7.25;2.53;;;;;;;;;;5041274;28;20096;-62
2023/06/05 15:25:14;;;;;;;6.75;2.80;;;;;;;;;;5050161;28;20615;-64
2023/06/05 15:27:41;;;;;;;7.07;2.72;;;;;;;;;;5040013;28;20060;-64
2023/06/05 15:30:08;;;;;;;11.00;2.72;;;;;;;;;;5040546;28;20049;-64
2023/06/05 15:32:35;;;;;;;6.18;2.65;;;;;;;;;;5038654;28;20029;-64
2023/06/05 15:35:01;;;;;;;5.68;2.33;;;;;;;;;;5054892;28;20040;-63
2023/06/05 15:37:28;;;;;;;10.02;2.78;;;;;;;;;;5038220;28;20194;-64
2023/06/05 15:39:55;;;;;;;6.22;2.53;;;;;;;;;;5038978;28;20047;-65
2023/06/05 15:42:31;;;;;;;8.43;2.20;;;;;;;;;;5054353;28;20050;-64
2023/06/05 15:45:08;;;;;;;5.43;1.90;;;;;;;;;;5039739;28;20595;-65
2023/06/05 15:47:35;;;;;;;9.60;2.65;;;;;;;;;;5029245;28;20044;-66
2023/06/05 15:50:04;;;;;;;4.93;2.05;;;;;;;;;;5024676;28;20038;-64
2023/06/05 15:52:31;;;;;;;6.10;2.20;;;;;;;;;;5025356;28;20044;-65
2023/06/05 15:55:01;;;;;;;6.18;2.22;;;;;;;;;;5026288;28;20573;-65
2023/06/05 15:57:28;;;;;;;6.65;2.53;;;;;;;;;;5026406;28;20049;-66
2023/06/05 15:59:54;;;;;;;6.20;2.60;;;;;;;;;;5031388;28;20151;-66
2023/06/05 16:02:21;;;;;;;10.32;2.67;;;;;;;;;;5022518;28;20486;-64
2023/06/05 16:04:48;;;;;;;10.05;2.63;;;;;;;;;;5042427;28;20044;-65
2023/06/05 16:07:16;;;;;;;6.07;2.30;;;;;;;;;;5028127;28;20037;-65
2023/06/05 16:09:43;;;;;;;8.45;2.92;;;;;;;;;;5030225;28;20041;-64
2023/06/05 16:12:10;;;;;;;8.57;2.90;;;;;;;;;;5026814;28;20806;-65
2023/06/05 16:14:37;;;;;;;9.60;2.70;;;;;;;;;;5024111;28;20096;-64
2023/06/05 16:17:05;;;;;;;6.53;2.13;;;;;;;;;;5026511;28;20053;-63
2023/06/05 16:19:32;;;;;;;6.25;2.40;;;;;;;;;;5025072;28;20093;-65
2023/06/05 16:21:58;;;;;;;5.82;2.40;;;;;;;;;;5025509;28;20041;-64
2023/06/05 16:24:25;;;;;;;9.07;2.90;;;;;;;;;;5026290;28;20616;-64
2023/06/05 16:26:52;;;;;;;5.00;2.58;;;;;;;;;;5024831;28;20035;-64
2023/06/05 16:29:18;;;;;;;5.68;2.88;;;;;;;;;;5025416;28;20127;-65
2023/06/05 16:31:45;;;;;;;7.20;2.38;;;;;;;;;;5024318;28;20957;-65
2023/06/05 16:34:13;;;;;;;6.22;2.63;;;;;;;;;;5025246;28;20107;-65
2023/06/05 16:36:40;;;;;;;7.95;2.78;;;;;;;;;;5015535;28;20103;-66
2023/06/05 16:39:07;;;;;;;8.80;2.95;;;;;;;;;;5023727;28;20084;-65
2023/06/05 16:41:33;;;;;;;5.05;2.35;;;;;;;;;;5024354;28;20452;-63
2023/06/05 16:44:00;;;;;;;7.78;2.60;;;;;;;;;;5027877;28;20037;-62
2023/06/05 16:46:27;;;;;;;7.63;2.47;;;;;;;;;;5029710;28;20776;-62
2023/06/05 16:48:53;;;;;;;5.75;2.85;;;;;;;;;;5025700;28;20425;-64
2023/06/05 16:51:24;;;;;;;5.75;2.70;;;;;;;;;;5024342;28;20613;-63
2023/06/05 16:53:53;;;;;;;6.80;2.97;;;;;;;;;;5029022;28;20048;-64
2023/06/05 16:56:20;;;;;;;6.10;3.00;;;;;;;;;;5028927;28;20520;-63
2023/06/05 16:58:47;;;;;;;7.90;3.15;;;;;;;;;;5022713;28;20071;-64
2023/06/05 17:01:13;;;;;;;5.38;2.28;;;;;;;;;;5025294;28;20128;-65
2023/06/05 17:03:40;;;;;;;8.52;2.42;;;;;;;;;;5026856;28;20901;-62
2023/06/05 17:06:07;;;;;;;7.22;2.78;;;;;;;;;;5026766;28;20029;-63
2023/06/05 17:08:33;;;;;;;9.98;2.88;;;;;;;;;;5027746;28;20042;-63
2023/06/05 17:11:00;;;;;;;11.05;3.10;;;;;;;;;;5027044;28;20045;-63
2023/06/05 17:13:27;;;;;;;5.50;2.50;;;;;;;;;;5023142;28;20532;-64
2023/06/05 17:15:53;;;;;;;8.88;2.92;;;;;;;;;;5033275;28;20124;-63
2023/06/05 17:18:20;;;;;;;4.88;2.58;;;;;;;;;;5033031;28;20033;-64
2023/06/05 17:20:47;;;;;;;12.00;2.60;;;;;;;;;;5031544;28;20072;-64
2023/06/05 17:23:13;;;;;;;7.57;2.58;;;;;;;;;;5032230;28;20040;-63
2023/06/05 17:25:40;;;;;;;11.63;2.90;;;;;;;;;;5035867;28;20037;-64
2023/06/05 17:28:07;;;;;;;6.47;2.67;;;;;;;;;;5029463;28;20145;-63
2023/06/05 17:30:33;;;;;;;8.80;3.42;;;;;;;;;;5023260;28;20046;-64
2023/06/05 17:33:00;;;;;;;12.63;3.47;;;;;;;;;;5024519;28;20041;-64
2023/06/05 17:35:27;;;;;;;10.35;2.83;;;;;;;;;;5005326;28;20127;-64
2023/06/05 17:37:53;;;;;;;10.13;3.70;;;;;;;;;;5040310;28;20135;-61
2023/06/05 17:40:22;;;;;;;9.25;2.60;;;;;;;;;;5025126;28;20063;-64
2023/06/05 17:42:49;;;;;;;9.20;3.10;;;;;;;;;;5016817;28;21811;-64
2023/06/05 17:45:15;;;;;;;8.13;2.88;;;;;;;;;;5024957;28;20033;-63
2023/06/05 17:47:42;;;;;;;7.72;2.90;;;;;;;;;;5031012;28;20132;-65
2023/06/05 17:50:09;;;;;;;8.57;3.08;;;;;;;;;;5023332;28;20034;-62
2023/06/05 17:52:35;;;;;;;6.60;3.25;;;;;;;;;;5022745;28;20506;-61
2023/06/05 17:55:02;;;;;;;7.82;3.13;;;;;;;;;;5023149;28;20108;-63
2023/06/05 17:57:29;;;;;;;5.10;2.28;;;;;;;;;;5024747;28;20038;-63
2023/06/05 17:59:56;;;;;;;8.23;2.88;;;;;;;;;;5024454;28;20112;-64
2023/06/05 18:02:22;;;;;;;10.70;3.33;;;;;;;;;;5023336;28;20045;-64
2023/06/05 18:04:49;;;;;;;9.30;2.63;;;;;;;;;;5036561;28;20125;-64
2023/06/05 18:07:16;;;;;;;13.65;3.40;;;;;;;;;;5021553;28;20053;-64
2023/06/05 18:09:43;;;;;;;8.63;3.00;;;;;;;;;;5021849;28;20409;-65
2023/06/05 18:12:09;;;;;;;6.82;2.70;;;;;;;;;;5023603;28;20128;-64
2023/06/05 18:14:37;;;;;;;8.32;2.97;;;;;;;;;;5021726;28;20457;-64
2023/06/05 18:17:03;;;;;;;8.00;2.90;;;;;;;;;;5023893;28;20586;-64
2023/06/05 18:19:30;;;;;;;16.73;3.00;;;;;;;;;;5022587;28;20474;-65
2023/06/05 18:21:58;;;;;;;7.07;3.63;;;;;;;;;;5025181;28;20056;-64
2023/06/05 18:24:25;;;;;;;10.07;3.10;;;;;;;;;;5023945;28;20401;-64
2023/06/05 18:26:53;;;;;;;9.73;3.45;;;;;;;;;;5036322;28;20061;-65
2023/06/05 18:29:20;;;;;;;10.02;3.22;;;;;;;;;;5020454;28;20179;-64
2023/06/05 18:31:47;;;;;;;10.15;3.40;;;;;;;;;;5026279;28;20142;-63
2023/06/05 18:34:15;;;;;;;16.55;3.30;;;;;;;;;;5032076;28;20387;-64